sensor_id;sensor_type;location;lat;lon;timestamp;P1;durP1;ratioP1;P2;durP2;ratioP2
28483;SDS011;15704;48.834;8.736;2022-10-22T00:00:15;2.28;;;1.00;;
28483;SDS011;15704;48.834;8.736;2022-10-22T00:02:41;1.63;;;0.80;;
28483;SDS011;15704;48.834;8.736;2022-10-22T00:05:08;1.23;;;0.70;;
28483;SDS011;15704;48.834;8.736;2022-10-22T00:07:34;2.25;;;0.85;;
28483;SDS011;15704;48.834;8.736;2022-10-22T00:10:00;0.70;;;0.70;;
28483;SDS011;15704;48.834;8.736;2022-10-22T00:12:25;1.77;;;0.75;;
28483;SDS011;15704;48.834;8.736;2022-10-22T00:14:51;1.08;;;0.70;;
28483;SDS011;15704;48.834;8.736;2022-10-22T00:17:17;2.00;;;0.90;;
28483;SDS011;15704;48.834;8.736;2022-10-22T00:19:42;1.05;;;0.70;;
28483;SDS011;15704;48.834;8.736;2022-10-22T00:22:08;2.50;;;0.85;;
28483;SDS011;15704;48.834;8.736;2022-10-22T00:24:35;0.60;;;0.60;;
28483;SDS011;15704;48.834;8.736;2022-10-22T00:27:01;2.45;;;0.85;;
28483;SDS011;15704;48.834;8.736;2022-10-22T00:29:27;3.35;;;0.93;;
28483;SDS011;15704;48.834;8.736;2022-10-22T00:31:53;0.98;;;0.80;;
28483;SDS011;15704;48.834;8.736;2022-10-22T00:34:20;1.52;;;0.82;;
28483;SDS011;15704;48.834;8.736;2022-10-22T00:36:46;0.90;;;0.60;;
28483;SDS011;15704;48.834;8.736;2022-10-22T00:39:14;1.67;;;1.20;;
28483;SDS011;15704;48.834;8.736;2022-10-22T00:41:42;1.90;;;0.98;;
28483;SDS011;15704;48.834;8.736;2022-10-22T00:47:13;1.60;;;0.60;;
28483;SDS011;15704;48.834;8.736;2022-10-22T00:49:39;2.00;;;0.80;;
28483;SDS011;15704;48.834;8.736;2022-10-22T00:52:06;1.73;;;0.70;;
28483;SDS011;15704;48.834;8.736;2022-10-22T00:54:32;1.23;;;0.95;;
28483;SDS011;15704;48.834;8.736;2022-10-22T00:56:59;3.92;;;0.70;;
28483;SDS011;15704;48.834;8.736;2022-10-22T00:59:25;0.52;;;0.50;;
28483;SDS011;15704;48.834;8.736;2022-10-22T01:01:52;3.20;;;1.25;;
28483;SDS011;15704;48.834;8.736;2022-10-22T01:04:18;4.30;;;0.80;;
28483;SDS011;15704;48.834;8.736;2022-10-22T01:06:44;0.98;;;0.75;;
28483;SDS011;15704;48.834;8.736;2022-10-22T01:20:01;2.05;;;0.70;;
28483;SDS011;15704;48.834;8.736;2022-10-22T01:23:03;0.68;;;0.55;;
28483;SDS011;15704;48.834;8.736;2022-10-22T01:25:36;1.70;;;0.60;;
28483;SDS011;15704;48.834;8.736;2022-10-22T01:30:38;1.17;;;0.75;;
28483;SDS011;15704;48.834;8.736;2022-10-22T01:33:05;1.05;;;0.50;;
28483;SDS011;15704;48.834;8.736;2022-10-22T01:35:36;0.70;;;0.65;;
28483;SDS011;15704;48.834;8.736;2022-10-22T01:38:05;2.45;;;1.33;;
28483;SDS011;15704;48.834;8.736;2022-10-22T01:40:34;0.70;;;0.60;;
28483;SDS011;15704;48.834;8.736;2022-10-22T01:43:02;0.63;;;0.63;;
28483;SDS011;15704;48.834;8.736;2022-10-22T01:45:32;0.77;;;0.55;;
28483;SDS011;15704;48.834;8.736;2022-10-22T01:48:05;2.45;;;0.70;;
28483;SDS011;15704;48.834;8.736;2022-10-22T01:53:07;0.68;;;0.60;;
28483;SDS011;15704;48.834;8.736;2022-10-22T02:06:34;1.43;;;0.50;;
28483;SDS011;15704;48.834;8.736;2022-10-22T02:09:02;2.50;;;0.73;;
28483;SDS011;15704;48.834;8.736;2022-10-22T02:11:29;0.77;;;0.68;;
28483;SDS011;15704;48.834;8.736;2022-10-22T02:13:56;2.88;;;0.57;;
28483;SDS011;15704;48.834;8.736;2022-10-22T02:16:28;1.88;;;0.80;;
28483;SDS011;15704;48.834;8.736;2022-10-22T02:19:00;3.67;;;0.50;;
28483;SDS011;15704;48.834;8.736;2022-10-22T02:21:30;0.70;;;0.50;;
28483;SDS011;15704;48.834;8.736;2022-10-22T02:23:56;1.45;;;0.50;;
28483;SDS011;15704;48.834;8.736;2022-10-22T02:26:28;0.63;;;0.60;;
28483;SDS011;15704;48.834;8.736;2022-10-22T02:29:00;1.80;;;0.60;;
28483;SDS011;15704;48.834;8.736;2022-10-22T02:33:55;2.28;;;0.50;;
28483;SDS011;15704;48.834;8.736;2022-10-22T02:36:25;0.57;;;0.57;;
28483;SDS011;15704;48.834;8.736;2022-10-22T02:38:51;0.88;;;0.40;;
28483;SDS011;15704;48.834;8.736;2022-10-22T02:41:18;0.70;;;0.60;;
28483;SDS011;15704;48.834;8.736;2022-10-22T02:43:49;0.60;;;0.40;;
28483;SDS011;15704;48.834;8.736;2022-10-22T02:46:17;0.80;;;0.50;;
28483;SDS011;15704;48.834;8.736;2022-10-22T02:48:42;1.00;;;0.65;;
28483;SDS011;15704;48.834;8.736;2022-10-22T02:51:08;1.00;;;0.60;;
28483;SDS011;15704;48.834;8.736;2022-10-22T02:53:34;0.60;;;0.50;;
28483;SDS011;15704;48.834;8.736;2022-10-22T02:55:59;1.08;;;0.70;;
28483;SDS011;15704;48.834;8.736;2022-10-22T02:58:25;0.60;;;0.60;;
28483;SDS011;15704;48.834;8.736;2022-10-22T03:00:50;0.60;;;0.32;;
28483;SDS011;15704;48.834;8.736;2022-10-22T03:03:16;0.95;;;0.60;;
28483;SDS011;15704;48.834;8.736;2022-10-22T03:05:41;2.60;;;0.70;;
28483;SDS011;15704;48.834;8.736;2022-10-22T03:08:07;0.55;;;0.45;;
28483;SDS011;15704;48.834;8.736;2022-10-22T03:10:32;1.52;;;0.70;;
28483;SDS011;15704;48.834;8.736;2022-10-22T03:12:58;0.60;;;0.55;;
28483;SDS011;15704;48.834;8.736;2022-10-22T03:15:24;1.00;;;0.63;;
28483;SDS011;15704;48.834;8.736;2022-10-22T03:17:49;1.17;;;0.55;;
28483;SDS011;15704;48.834;8.736;2022-10-22T03:20:15;0.82;;;0.50;;
28483;SDS011;15704;48.834;8.736;2022-10-22T03:22:41;2.58;;;0.60;;
28483;SDS011;15704;48.834;8.736;2022-10-22T03:25:09;0.47;;;0.47;;
28483;SDS011;15704;48.834;8.736;2022-10-22T03:27:38;0.47;;;0.40;;
28483;SDS011;15704;48.834;8.736;2022-10-22T03:30:05;1.55;;;0.50;;
28483;SDS011;15704;48.834;8.736;2022-10-22T03:32:32;0.50;;;0.38;;
28483;SDS011;15704;48.834;8.736;2022-10-22T03:34:57;1.65;;;0.60;;
28483;SDS011;15704;48.834;8.736;2022-10-22T03:37:24;0.57;;;0.45;;
28483;SDS011;15704;48.834;8.736;2022-10-22T03:39:51;0.73;;;0.47;;
28483;SDS011;15704;48.834;8.736;2022-10-22T03:42:18;0.52;;;0.47;;
28483;SDS011;15704;48.834;8.736;2022-10-22T03:44:44;1.15;;;0.60;;
28483;SDS011;15704;48.834;8.736;2022-10-22T03:47:10;0.88;;;0.50;;
28483;SDS011;15704;48.834;8.736;2022-10-22T03:49:35;1.73;;;0.40;;
28483;SDS011;15704;48.834;8.736;2022-10-22T03:52:08;0.70;;;0.40;;
28483;SDS011;15704;48.834;8.736;2022-10-22T03:54:35;0.93;;;0.40;;
28483;SDS011;15704;48.834;8.736;2022-10-22T03:57:02;0.60;;;0.50;;
28483;SDS011;15704;48.834;8.736;2022-10-22T03:59:32;1.17;;;0.50;;
28483;SDS011;15704;48.834;8.736;2022-10-22T04:02:02;0.98;;;0.65;;
28483;SDS011;15704;48.834;8.736;2022-10-22T04:04:27;0.60;;;0.40;;
28483;SDS011;15704;48.834;8.736;2022-10-22T04:09:38;0.50;;;0.35;;
28483;SDS011;15704;48.834;8.736;2022-10-22T04:12:03;0.70;;;0.40;;
28483;SDS011;15704;48.834;8.736;2022-10-22T04:14:31;0.80;;;0.50;;
28483;SDS011;15704;48.834;8.736;2022-10-22T04:16:57;1.10;;;0.50;;
28483;SDS011;15704;48.834;8.736;2022-10-22T04:19:23;0.65;;;0.60;;
28483;SDS011;15704;48.834;8.736;2022-10-22T04:21:48;1.30;;;0.50;;
28483;SDS011;15704;48.834;8.736;2022-10-22T04:24:14;0.65;;;0.57;;
28483;SDS011;15704;48.834;8.736;2022-10-22T04:26:39;0.20;;;0.20;;
28483;SDS011;15704;48.834;8.736;2022-10-22T04:29:05;1.02;;;0.50;;
28483;SDS011;15704;48.834;8.736;2022-10-22T04:31:31;0.40;;;0.40;;
28483;SDS011;15704;48.834;8.736;2022-10-22T04:33:58;0.40;;;0.40;;
28483;SDS011;15704;48.834;8.736;2022-10-22T04:36:25;0.82;;;0.40;;
28483;SDS011;15704;48.834;8.736;2022-10-22T04:38:56;0.65;;;0.40;;
28483;SDS011;15704;48.834;8.736;2022-10-22T04:41:24;0.40;;;0.30;;
28483;SDS011;15704;48.834;8.736;2022-10-22T04:43:52;1.15;;;0.40;;
28483;SDS011;15704;48.834;8.736;2022-10-22T04:46:19;1.02;;;0.30;;
28483;SDS011;15704;48.834;8.736;2022-10-22T04:48:45;1.33;;;0.35;;
28483;SDS011;15704;48.834;8.736;2022-10-22T04:51:12;0.40;;;0.40;;
28483;SDS011;15704;48.834;8.736;2022-10-22T04:53:40;0.63;;;0.35;;
28483;SDS011;15704;48.834;8.736;2022-10-22T04:56:10;0.82;;;0.35;;
28483;SDS011;15704;48.834;8.736;2022-10-22T04:58:37;0.95;;;0.40;;
28483;SDS011;15704;48.834;8.736;2022-10-22T05:01:17;0.30;;;0.30;;
28483;SDS011;15704;48.834;8.736;2022-10-22T05:03:44;0.38;;;0.38;;
28483;SDS011;15704;48.834;8.736;2022-10-22T05:06:14;0.65;;;0.40;;
28483;SDS011;15704;48.834;8.736;2022-10-22T05:08:40;0.75;;;0.50;;
28483;SDS011;15704;48.834;8.736;2022-10-22T05:11:14;0.98;;;0.50;;
28483;SDS011;15704;48.834;8.736;2022-10-22T05:13:41;0.85;;;0.52;;
28483;SDS011;15704;48.834;8.736;2022-10-22T05:16:07;0.47;;;0.35;;
28483;SDS011;15704;48.834;8.736;2022-10-22T05:18:36;0.80;;;0.40;;
28483;SDS011;15704;48.834;8.736;2022-10-22T05:21:07;0.40;;;0.25;;
28483;SDS011;15704;48.834;8.736;2022-10-22T05:23:34;0.38;;;0.32;;
28483;SDS011;15704;48.834;8.736;2022-10-22T05:26:03;0.40;;;0.40;;
28483;SDS011;15704;48.834;8.736;2022-10-22T05:28:30;0.40;;;0.40;;
28483;SDS011;15704;48.834;8.736;2022-10-22T05:30:57;1.52;;;0.60;;
28483;SDS011;15704;48.834;8.736;2022-10-22T05:33:23;1.65;;;0.45;;
28483;SDS011;15704;48.834;8.736;2022-10-22T05:35:50;0.35;;;0.30;;
28483;SDS011;15704;48.834;8.736;2022-10-22T05:38:16;0.52;;;0.40;;
28483;SDS011;15704;48.834;8.736;2022-10-22T05:40:42;0.50;;;0.40;;
28483;SDS011;15704;48.834;8.736;2022-10-22T05:43:08;0.30;;;0.30;;
28483;SDS011;15704;48.834;8.736;2022-10-22T05:45:38;1.05;;;0.43;;
28483;SDS011;15704;48.834;8.736;2022-10-22T05:48:05;0.82;;;0.52;;
28483;SDS011;15704;48.834;8.736;2022-10-22T05:50:34;0.50;;;0.40;;
28483;SDS011;15704;48.834;8.736;2022-10-22T05:53:01;0.90;;;0.50;;
28483;SDS011;15704;48.834;8.736;2022-10-22T05:55:28;0.95;;;0.30;;
28483;SDS011;15704;48.834;8.736;2022-10-22T05:57:53;0.45;;;0.40;;
28483;SDS011;15704;48.834;8.736;2022-10-22T06:00:19;0.95;;;0.40;;
28483;SDS011;15704;48.834;8.736;2022-10-22T06:02:48;0.30;;;0.30;;
28483;SDS011;15704;48.834;8.736;2022-10-22T06:05:14;2.03;;;0.28;;
28483;SDS011;15704;48.834;8.736;2022-10-22T06:07:39;0.45;;;0.43;;
28483;SDS011;15704;48.834;8.736;2022-10-22T06:10:07;0.98;;;0.55;;
28483;SDS011;15704;48.834;8.736;2022-10-22T06:12:38;0.47;;;0.40;;
28483;SDS011;15704;48.834;8.736;2022-10-22T06:15:04;0.85;;;0.40;;
28483;SDS011;15704;48.834;8.736;2022-10-22T06:17:30;0.57;;;0.38;;
28483;SDS011;15704;48.834;8.736;2022-10-22T06:19:55;0.50;;;0.30;;
28483;SDS011;15704;48.834;8.736;2022-10-22T06:22:21;0.30;;;0.30;;
28483;SDS011;15704;48.834;8.736;2022-10-22T06:24:46;0.80;;;0.30;;
28483;SDS011;15704;48.834;8.736;2022-10-22T06:27:12;0.93;;;0.40;;
28483;SDS011;15704;48.834;8.736;2022-10-22T06:29:37;0.68;;;0.40;;
28483;SDS011;15704;48.834;8.736;2022-10-22T06:32:03;0.40;;;0.40;;
28483;SDS011;15704;48.834;8.736;2022-10-22T06:34:29;0.30;;;0.30;;
28483;SDS011;15704;48.834;8.736;2022-10-22T06:36:54;0.60;;;0.38;;
28483;SDS011;15704;48.834;8.736;2022-10-22T06:39:20;1.85;;;0.50;;
28483;SDS011;15704;48.834;8.736;2022-10-22T06:41:45;0.35;;;0.30;;
28483;SDS011;15704;48.834;8.736;2022-10-22T06:44:15;0.45;;;0.30;;
28483;SDS011;15704;48.834;8.736;2022-10-22T06:46:42;0.30;;;0.30;;
28483;SDS011;15704;48.834;8.736;2022-10-22T06:49:08;0.40;;;0.30;;
28483;SDS011;15704;48.834;8.736;2022-10-22T06:51:37;1.05;;;0.32;;
28483;SDS011;15704;48.834;8.736;2022-10-22T06:54:03;1.48;;;0.40;;
28483;SDS011;15704;48.834;8.736;2022-10-22T06:56:29;0.98;;;0.40;;
28483;SDS011;15704;48.834;8.736;2022-10-22T06:58:55;1.25;;;0.55;;
28483;SDS011;15704;48.834;8.736;2022-10-22T07:01:23;0.40;;;0.40;;
28483;SDS011;15704;48.834;8.736;2022-10-22T07:03:53;0.52;;;0.40;;
28483;SDS011;15704;48.834;8.736;2022-10-22T07:06:20;2.63;;;0.50;;
28483;SDS011;15704;48.834;8.736;2022-10-22T07:08:46;0.70;;;0.40;;
28483;SDS011;15704;48.834;8.736;2022-10-22T07:11:13;0.60;;;0.32;;
28483;SDS011;15704;48.834;8.736;2022-10-22T07:13:44;0.55;;;0.40;;
28483;SDS011;15704;48.834;8.736;2022-10-22T07:16:10;1.27;;;0.40;;
28483;SDS011;15704;48.834;8.736;2022-10-22T07:18:37;0.43;;;0.40;;
28483;SDS011;15704;48.834;8.736;2022-10-22T07:21:03;1.15;;;0.50;;
28483;SDS011;15704;48.834;8.736;2022-10-22T07:23:30;0.28;;;0.20;;
28483;SDS011;15704;48.834;8.736;2022-10-22T07:25:55;0.30;;;0.30;;
28483;SDS011;15704;48.834;8.736;2022-10-22T07:28:21;0.50;;;0.50;;
28483;SDS011;15704;48.834;8.736;2022-10-22T07:30:47;0.20;;;0.20;;
28483;SDS011;15704;48.834;8.736;2022-10-22T07:33:13;0.35;;;0.30;;
28483;SDS011;15704;48.834;8.736;2022-10-22T07:35:39;0.45;;;0.38;;
28483;SDS011;15704;48.834;8.736;2022-10-22T07:38:05;0.73;;;0.40;;
28483;SDS011;15704;48.834;8.736;2022-10-22T07:40:31;0.22;;;0.22;;
28483;SDS011;15704;48.834;8.736;2022-10-22T07:42:58;0.82;;;0.35;;
28483;SDS011;15704;48.834;8.736;2022-10-22T07:45:24;0.68;;;0.40;;
28483;SDS011;15704;48.834;8.736;2022-10-22T07:47:49;0.30;;;0.25;;
28483;SDS011;15704;48.834;8.736;2022-10-22T07:50:15;0.60;;;0.40;;
28483;SDS011;15704;48.834;8.736;2022-10-22T07:52:41;0.88;;;0.40;;
28483;SDS011;15704;48.834;8.736;2022-10-22T07:55:07;1.05;;;0.32;;
28483;SDS011;15704;48.834;8.736;2022-10-22T07:57:32;0.43;;;0.40;;
28483;SDS011;15704;48.834;8.736;2022-10-22T07:59:58;0.88;;;0.32;;
28483;SDS011;15704;48.834;8.736;2022-10-22T08:02:24;0.45;;;0.20;;
28483;SDS011;15704;48.834;8.736;2022-10-22T08:04:50;0.93;;;0.30;;
28483;SDS011;15704;48.834;8.736;2022-10-22T08:07:16;1.35;;;0.50;;
28483;SDS011;15704;48.834;8.736;2022-10-22T08:09:42;0.40;;;0.40;;
28483;SDS011;15704;48.834;8.736;2022-10-22T08:12:08;0.30;;;0.30;;
28483;SDS011;15704;48.834;8.736;2022-10-22T08:14:34;0.57;;;0.43;;
28483;SDS011;15704;48.834;8.736;2022-10-22T08:16:59;0.40;;;0.40;;
28483;SDS011;15704;48.834;8.736;2022-10-22T08:19:25;0.38;;;0.30;;
28483;SDS011;15704;48.834;8.736;2022-10-22T08:21:52;0.40;;;0.40;;
28483;SDS011;15704;48.834;8.736;2022-10-22T08:24:18;0.40;;;0.38;;
28483;SDS011;15704;48.834;8.736;2022-10-22T08:26:43;0.30;;;0.30;;
28483;SDS011;15704;48.834;8.736;2022-10-22T08:29:09;1.25;;;0.50;;
28483;SDS011;15704;48.834;8.736;2022-10-22T08:31:35;0.70;;;0.40;;
28483;SDS011;15704;48.834;8.736;2022-10-22T08:34:00;0.30;;;0.30;;
28483;SDS011;15704;48.834;8.736;2022-10-22T08:36:26;0.20;;;0.20;;
28483;SDS011;15704;48.834;8.736;2022-10-22T08:38:52;0.73;;;0.32;;
28483;SDS011;15704;48.834;8.736;2022-10-22T08:41:18;0.73;;;0.40;;
28483;SDS011;15704;48.834;8.736;2022-10-22T08:49:02;0.40;;;0.30;;
28483;SDS011;15704;48.834;8.736;2022-10-22T08:51:33;0.63;;;0.30;;
28483;SDS011;15704;48.834;8.736;2022-10-22T08:56:29;0.43;;;0.40;;
28483;SDS011;15704;48.834;8.736;2022-10-22T09:01:33;0.30;;;0.30;;
28483;SDS011;15704;48.834;8.736;2022-10-22T09:06:36;0.40;;;0.30;;
28483;SDS011;15704;48.834;8.736;2022-10-22T09:09:08;0.47;;;0.30;;
28483;SDS011;15704;48.834;8.736;2022-10-22T09:11:38;0.52;;;0.30;;
28483;SDS011;15704;48.834;8.736;2022-10-22T09:14:08;0.80;;;0.40;;
28483;SDS011;15704;48.834;8.736;2022-10-22T09:17:04;1.95;;;0.40;;
28483;SDS011;15704;48.834;8.736;2022-10-22T09:19:48;0.38;;;0.30;;
28483;SDS011;15704;48.834;8.736;2022-10-22T09:22:22;0.30;;;0.20;;
28483;SDS011;15704;48.834;8.736;2022-10-22T09:24:58;0.28;;;0.28;;
28483;SDS011;15704;48.834;8.736;2022-10-22T09:27:37;0.30;;;0.30;;
28483;SDS011;15704;48.834;8.736;2022-10-22T09:30:03;0.45;;;0.30;;
28483;SDS011;15704;48.834;8.736;2022-10-22T09:32:29;0.20;;;0.20;;
28483;SDS011;15704;48.834;8.736;2022-10-22T09:34:56;0.20;;;0.20;;
28483;SDS011;15704;48.834;8.736;2022-10-22T09:37:26;0.75;;;0.30;;
28483;SDS011;15704;48.834;8.736;2022-10-22T09:39:54;1.55;;;0.50;;
28483;SDS011;15704;48.834;8.736;2022-10-22T09:42:21;0.80;;;0.38;;
28483;SDS011;15704;48.834;8.736;2022-10-22T09:44:56;4.43;;;0.50;;
28483;SDS011;15704;48.834;8.736;2022-10-22T09:47:39;0.40;;;0.40;;
28483;SDS011;15704;48.834;8.736;2022-10-22T09:53:00;2.33;;;0.30;;
28483;SDS011;15704;48.834;8.736;2022-10-22T09:55:36;0.85;;;0.30;;
28483;SDS011;15704;48.834;8.736;2022-10-22T09:58:03;0.55;;;0.40;;
28483;SDS011;15704;48.834;8.736;2022-10-22T10:00:29;1.23;;;0.40;;
28483;SDS011;15704;48.834;8.736;2022-10-22T10:02:56;5.35;;;0.60;;
28483;SDS011;15704;48.834;8.736;2022-10-22T10:05:28;2.60;;;0.77;;
28483;SDS011;15704;48.834;8.736;2022-10-22T10:07:56;2.30;;;0.73;;
28483;SDS011;15704;48.834;8.736;2022-10-22T10:10:32;1.50;;;0.35;;
28483;SDS011;15704;48.834;8.736;2022-10-22T10:13:48;0.50;;;0.40;;
28483;SDS011;15704;48.834;8.736;2022-10-22T10:16:04;2.40;;;0.50;;
28483;SDS011;15704;48.834;8.736;2022-10-22T10:19:05;1.02;;;0.40;;
28483;SDS011;15704;48.834;8.736;2022-10-22T10:21:42;2.55;;;0.65;;
28483;SDS011;15704;48.834;8.736;2022-10-22T10:27:19;0.95;;;0.40;;
28483;SDS011;15704;48.834;8.736;2022-10-22T10:37:28;2.65;;;0.70;;
28483;SDS011;15704;48.834;8.736;2022-10-22T10:45:15;2.58;;;0.40;;
28483;SDS011;15704;48.834;8.736;2022-10-22T10:55:53;3.40;;;0.65;;
28483;SDS011;15704;48.834;8.736;2022-10-22T11:06:40;1.23;;;0.40;;
28483;SDS011;15704;48.834;8.736;2022-10-22T11:09:24;0.57;;;0.40;;
28483;SDS011;15704;48.834;8.736;2022-10-22T11:11:58;0.90;;;0.40;;
28483;SDS011;15704;48.834;8.736;2022-10-22T11:14:29;4.05;;;0.52;;
28483;SDS011;15704;48.834;8.736;2022-10-22T11:17:03;1.55;;;0.50;;
28483;SDS011;15704;48.834;8.736;2022-10-22T11:19:42;0.30;;;0.30;;
28483;SDS011;15704;48.834;8.736;2022-10-22T11:22:22;0.98;;;0.30;;
28483;SDS011;15704;48.834;8.736;2022-10-22T11:30:18;0.73;;;0.30;;
28483;SDS011;15704;48.834;8.736;2022-10-22T11:32:46;1.52;;;0.40;;
28483;SDS011;15704;48.834;8.736;2022-10-22T11:35:16;0.52;;;0.40;;
28483;SDS011;15704;48.834;8.736;2022-10-22T11:37:51;1.48;;;0.50;;
28483;SDS011;15704;48.834;8.736;2022-10-22T11:42:48;0.45;;;0.30;;
28483;SDS011;15704;48.834;8.736;2022-10-22T12:00:53;7.15;;;0.50;;
28483;SDS011;15704;48.834;8.736;2022-10-22T12:08:57;1.45;;;0.60;;
28483;SDS011;15704;48.834;8.736;2022-10-22T12:16:24;1.20;;;0.50;;
28483;SDS011;15704;48.834;8.736;2022-10-22T12:19:02;7.55;;;0.80;;
28483;SDS011;15704;48.834;8.736;2022-10-22T12:21:38;1.13;;;0.57;;
28483;SDS011;15704;48.834;8.736;2022-10-22T12:24:05;1.00;;;0.50;;
28483;SDS011;15704;48.834;8.736;2022-10-22T12:26:32;2.03;;;0.80;;
28483;SDS011;15704;48.834;8.736;2022-10-22T12:29:02;1.50;;;0.60;;
28483;SDS011;15704;48.834;8.736;2022-10-22T12:31:34;0.70;;;0.40;;
28483;SDS011;15704;48.834;8.736;2022-10-22T12:34:02;0.80;;;0.43;;
28483;SDS011;15704;48.834;8.736;2022-10-22T12:36:34;2.17;;;0.50;;
28483;SDS011;15704;48.834;8.736;2022-10-22T12:39:01;1.10;;;0.45;;
28483;SDS011;15704;48.834;8.736;2022-10-22T12:41:36;1.05;;;0.43;;
28483;SDS011;15704;48.834;8.736;2022-10-22T12:44:03;1.20;;;0.57;;
28483;SDS011;15704;48.834;8.736;2022-10-22T12:46:33;0.57;;;0.40;;
28483;SDS011;15704;48.834;8.736;2022-10-22T12:49:07;1.55;;;0.80;;
28483;SDS011;15704;48.834;8.736;2022-10-22T12:51:38;1.35;;;0.40;;
28483;SDS011;15704;48.834;8.736;2022-10-22T12:54:08;0.57;;;0.40;;
28483;SDS011;15704;48.834;8.736;2022-10-22T12:56:47;0.40;;;0.30;;
28483;SDS011;15704;48.834;8.736;2022-10-22T12:59:18;0.80;;;0.50;;
28483;SDS011;15704;48.834;8.736;2022-10-22T13:01:57;0.82;;;0.40;;
28483;SDS011;15704;48.834;8.736;2022-10-22T13:07:12;1.40;;;0.45;;
28483;SDS011;15704;48.834;8.736;2022-10-22T13:09:43;1.25;;;0.57;;
28483;SDS011;15704;48.834;8.736;2022-10-22T13:12:12;0.93;;;0.52;;
28483;SDS011;15704;48.834;8.736;2022-10-22T13:14:43;0.90;;;0.47;;
28483;SDS011;15704;48.834;8.736;2022-10-22T13:17:14;1.60;;;0.40;;
28483;SDS011;15704;48.834;8.736;2022-10-22T13:24:52;1.45;;;0.40;;
28483;SDS011;15704;48.834;8.736;2022-10-22T13:27:20;0.88;;;0.50;;
28483;SDS011;15704;48.834;8.736;2022-10-22T13:29:48;0.70;;;0.40;;
28483;SDS011;15704;48.834;8.736;2022-10-22T13:32:26;4.22;;;0.98;;
28483;SDS011;15704;48.834;8.736;2022-10-22T13:34:57;5.88;;;0.50;;
28483;SDS011;15704;48.834;8.736;2022-10-22T13:37:24;2.03;;;0.93;;
28483;SDS011;15704;48.834;8.736;2022-10-22T13:39:50;2.83;;;0.40;;
28483;SDS011;15704;48.834;8.736;2022-10-22T13:42:15;0.68;;;0.32;;
28483;SDS011;15704;48.834;8.736;2022-10-22T13:44:41;2.28;;;0.40;;
28483;SDS011;15704;48.834;8.736;2022-10-22T13:47:40;1.33;;;0.40;;
28483;SDS011;15704;48.834;8.736;2022-10-22T13:49:59;0.95;;;0.50;;
28483;SDS011;15704;48.834;8.736;2022-10-22T13:52:28;0.93;;;0.60;;
28483;SDS011;15704;48.834;8.736;2022-10-22T13:54:58;2.25;;;0.85;;
28483;SDS011;15704;48.834;8.736;2022-10-22T13:57:24;1.67;;;0.73;;
28483;SDS011;15704;48.834;8.736;2022-10-22T13:59:49;2.33;;;0.55;;
28483;SDS011;15704;48.834;8.736;2022-10-22T14:02:15;2.78;;;0.80;;
28483;SDS011;15704;48.834;8.736;2022-10-22T14:04:41;2.30;;;0.77;;
28483;SDS011;15704;48.834;8.736;2022-10-22T14:07:14;2.22;;;0.95;;
28483;SDS011;15704;48.834;8.736;2022-10-22T14:09:41;4.78;;;0.80;;
28483;SDS011;15704;48.834;8.736;2022-10-22T14:12:14;6.72;;;0.90;;
28483;SDS011;15704;48.834;8.736;2022-10-22T14:14:40;4.90;;;1.02;;
28483;SDS011;15704;48.834;8.736;2022-10-22T14:17:14;3.60;;;0.90;;
28483;SDS011;15704;48.834;8.736;2022-10-22T14:19:44;2.90;;;0.80;;
28483;SDS011;15704;48.834;8.736;2022-10-22T14:22:13;3.27;;;0.80;;
28483;SDS011;15704;48.834;8.736;2022-10-22T14:24:40;4.05;;;0.80;;
28483;SDS011;15704;48.834;8.736;2022-10-22T14:27:07;3.40;;;0.90;;
28483;SDS011;15704;48.834;8.736;2022-10-22T14:29:35;1.65;;;1.02;;
28483;SDS011;15704;48.834;8.736;2022-10-22T14:32:00;1.27;;;0.60;;
28483;SDS011;15704;48.834;8.736;2022-10-22T14:34:26;4.93;;;0.70;;
28483;SDS011;15704;48.834;8.736;2022-10-22T14:36:51;5.22;;;1.10;;
28483;SDS011;15704;48.834;8.736;2022-10-22T14:39:17;3.75;;;1.02;;
28483;SDS011;15704;48.834;8.736;2022-10-22T14:41:43;8.00;;;1.17;;
28483;SDS011;15704;48.834;8.736;2022-10-22T14:44:10;3.70;;;0.77;;
28483;SDS011;15704;48.834;8.736;2022-10-22T14:46:37;2.35;;;1.00;;
28483;SDS011;15704;48.834;8.736;2022-10-22T14:49:06;4.88;;;0.98;;
28483;SDS011;15704;48.834;8.736;2022-10-22T14:51:31;2.13;;;0.70;;
28483;SDS011;15704;48.834;8.736;2022-10-22T14:53:57;3.85;;;1.23;;
28483;SDS011;15704;48.834;8.736;2022-10-22T14:56:22;3.42;;;1.00;;
28483;SDS011;15704;48.834;8.736;2022-10-22T14:58:48;3.90;;;0.90;;
28483;SDS011;15704;48.834;8.736;2022-10-22T15:01:14;3.33;;;1.00;;
28483;SDS011;15704;48.834;8.736;2022-10-22T15:03:40;2.28;;;0.80;;
28483;SDS011;15704;48.834;8.736;2022-10-22T15:06:05;3.65;;;0.80;;
28483;SDS011;15704;48.834;8.736;2022-10-22T15:08:31;2.85;;;0.80;;
28483;SDS011;15704;48.834;8.736;2022-10-22T15:11:04;2.95;;;1.17;;
28483;SDS011;15704;48.834;8.736;2022-10-22T15:13:31;5.55;;;0.95;;
28483;SDS011;15704;48.834;8.736;2022-10-22T15:15:58;3.38;;;1.10;;
28483;SDS011;15704;48.834;8.736;2022-10-22T15:18:24;2.75;;;0.98;;
28483;SDS011;15704;48.834;8.736;2022-10-22T15:20:54;7.38;;;1.05;;
28483;SDS011;15704;48.834;8.736;2022-10-22T15:23:20;13.55;;;1.52;;
28483;SDS011;15704;48.834;8.736;2022-10-22T15:25:46;2.70;;;1.05;;
28483;SDS011;15704;48.834;8.736;2022-10-22T15:28:11;8.32;;;3.85;;
28483;SDS011;15704;48.834;8.736;2022-10-22T15:30:37;10.93;;;5.55;;
28483;SDS011;15704;48.834;8.736;2022-10-22T15:33:03;7.68;;;4.30;;
28483;SDS011;15704;48.834;8.736;2022-10-22T15:35:28;6.15;;;3.85;;
28483;SDS011;15704;48.834;8.736;2022-10-22T15:37:54;8.85;;;3.00;;
28483;SDS011;15704;48.834;8.736;2022-10-22T15:40:19;3.45;;;1.83;;
28483;SDS011;15704;48.834;8.736;2022-10-22T15:42:45;4.80;;;1.45;;
28483;SDS011;15704;48.834;8.736;2022-10-22T15:45:10;4.13;;;1.63;;
28483;SDS011;15704;48.834;8.736;2022-10-22T15:47:36;5.57;;;2.00;;
28483;SDS011;15704;48.834;8.736;2022-10-22T15:50:02;9.98;;;1.33;;
28483;SDS011;15704;48.834;8.736;2022-10-22T15:52:28;6.03;;;1.50;;
28483;SDS011;15704;48.834;8.736;2022-10-22T15:54:55;2.80;;;1.25;;
28483;SDS011;15704;48.834;8.736;2022-10-22T15:57:20;2.95;;;1.13;;
28483;SDS011;15704;48.834;8.736;2022-10-22T15:59:46;2.13;;;1.27;;
28483;SDS011;15704;48.834;8.736;2022-10-22T16:02:13;1.90;;;1.10;;
28483;SDS011;15704;48.834;8.736;2022-10-22T16:04:40;5.68;;;1.30;;
28483;SDS011;15704;48.834;8.736;2022-10-22T16:07:06;1.63;;;1.10;;
28483;SDS011;15704;48.834;8.736;2022-10-22T16:09:31;2.75;;;1.35;;
28483;SDS011;15704;48.834;8.736;2022-10-22T16:11:57;3.78;;;1.02;;
28483;SDS011;15704;48.834;8.736;2022-10-22T16:14:22;3.17;;;1.08;;
28483;SDS011;15704;48.834;8.736;2022-10-22T16:16:49;4.10;;;1.30;;
28483;SDS011;15704;48.834;8.736;2022-10-22T16:19:17;2.92;;;1.25;;
28483;SDS011;15704;48.834;8.736;2022-10-22T16:21:44;3.00;;;1.33;;
28483;SDS011;15704;48.834;8.736;2022-10-22T16:24:10;2.90;;;1.20;;
28483;SDS011;15704;48.834;8.736;2022-10-22T16:26:36;4.40;;;1.10;;
28483;SDS011;15704;48.834;8.736;2022-10-22T16:29:02;5.28;;;2.47;;
28483;SDS011;15704;48.834;8.736;2022-10-22T16:31:29;2.50;;;1.27;;
28483;SDS011;15704;48.834;8.736;2022-10-22T16:33:54;4.85;;;2.40;;
28483;SDS011;15704;48.834;8.736;2022-10-22T16:36:21;5.07;;;1.75;;
28483;SDS011;15704;48.834;8.736;2022-10-22T16:38:47;3.65;;;1.65;;
28483;SDS011;15704;48.834;8.736;2022-10-22T16:43:39;4.60;;;2.53;;
28483;SDS011;15704;48.834;8.736;2022-10-22T16:46:07;3.40;;;2.25;;
28483;SDS011;15704;48.834;8.736;2022-10-22T16:48:33;3.75;;;1.58;;
28483;SDS011;15704;48.834;8.736;2022-10-22T16:51:03;1.30;;;1.20;;
28483;SDS011;15704;48.834;8.736;2022-10-22T16:53:30;3.20;;;0.85;;
28483;SDS011;15704;48.834;8.736;2022-10-22T16:55:55;1.52;;;0.80;;
28483;SDS011;15704;48.834;8.736;2022-10-22T16:58:21;7.93;;;2.05;;
28483;SDS011;15704;48.834;8.736;2022-10-22T17:00:46;8.77;;;2.08;;